sensor_id;sensor_type;location;lat;lon;timestamp;pressure;altitude;pressure_sealevel;temperature;humidity
52361;BME280;38294;42.966;1.608;2023-01-27T04:03:03;97296.16;;;3.29;74.19
52361;BME280;38294;42.966;1.608;2023-01-27T04:05:47;97298.19;;;3.01;73.75
52361;BME280;38294;42.966;1.608;2023-01-27T04:08:31;97306.97;;;2.62;72.68
52361;BME280;38294;42.966;1.608;2023-01-27T04:11:05;97283.53;;;3.55;71.86
52361;BME280;38294;42.966;1.608;2023-01-27T04:13:49;97288.28;;;3.18;72.14
52361;BME280;38294;42.966;1.608;2023-01-27T04:16:15;97295.03;;;3.30;69.75
52361;BME280;38294;42.966;1.608;2023-01-27T04:18:45;97290.16;;;3.40;69.77
52361;BME280;38294;42.966;1.608;2023-01-27T04:21:12;97301.06;;;3.27;69.48
52361;BME280;38294;42.966;1.608;2023-01-27T04:23:38;97307.13;;;2.79;70.21
52361;BME280;38294;42.966;1.608;2023-01-27T04:26:03;97292.53;;;3.11;69.88
52361;BME280;38294;42.966;1.608;2023-01-27T04:28:29;97298.72;;;3.03;70.96
52361;BME280;38294;42.966;1.608;2023-01-27T04:30:54;97297.97;;;2.89;70.04
52361;BME280;38294;42.966;1.608;2023-01-27T04:33:20;97301.72;;;2.79;69.50
52361;BME280;38294;42.966;1.608;2023-01-27T04:35:45;97288.69;;;3.03;68.74
52361;BME280;38294;42.966;1.608;2023-01-27T04:38:11;97296.69;;;2.86;68.78
52361;BME280;38294;42.966;1.608;2023-01-27T04:40:37;97282.66;;;3.37;68.18
52361;BME280;38294;42.966;1.608;2023-01-27T04:43:03;97288.66;;;3.26;67.91
52361;BME280;38294;42.966;1.608;2023-01-27T04:45:30;97286.06;;;3.51;66.77
52361;BME280;38294;42.966;1.608;2023-01-27T04:47:56;97293.41;;;3.51;65.79
52361;BME280;38294;42.966;1.608;2023-01-27T04:50:21;97298.50;;;3.22;65.75
52361;BME280;38294;42.966;1.608;2023-01-27T04:52:47;97298.78;;;3.42;64.71
52361;BME280;38294;42.966;1.608;2023-01-27T04:55:13;97299.84;;;3.72;62.68
52361;BME280;38294;42.966;1.608;2023-01-27T04:57:38;97300.59;;;3.55;63.76
52361;BME280;38294;42.966;1.608;2023-01-27T05:00:04;97299.72;;;4.42;62.13
52361;BME280;38294;42.966;1.608;2023-01-27T05:02:30;97298.13;;;4.58;60.78
52361;BME280;38294;42.966;1.608;2023-01-27T05:04:56;97298.59;;;4.52;59.42
52361;BME280;38294;42.966;1.608;2023-01-27T05:07:22;97294.78;;;4.70;57.65
52361;BME280;38294;42.966;1.608;2023-01-27T05:09:48;97297.81;;;4.77;57.39
52361;BME280;38294;42.966;1.608;2023-01-27T05:12:13;97280.81;;;5.14;57.23
52361;BME280;38294;42.966;1.608;2023-01-27T05:14:39;97293.34;;;4.81;57.59
52361;BME280;38294;42.966;1.608;2023-01-27T05:17:04;97275.75;;;4.27;58.40
52361;BME280;38294;42.966;1.608;2023-01-27T05:19:30;97275.75;;;4.27;57.63
52361;BME280;38294;42.966;1.608;2023-01-27T05:21:56;97283.28;;;4.47;57.24
52361;BME280;38294;42.966;1.608;2023-01-27T05:24:21;97285.63;;;5.09;55.96
52361;BME280;38294;42.966;1.608;2023-01-27T05:26:47;97278.94;;;5.06;55.98
52361;BME280;38294;42.966;1.608;2023-01-27T05:29:12;97281.34;;;4.82;55.59
52361;BME280;38294;42.966;1.608;2023-01-27T05:31:38;97281.84;;;4.84;55.72
52361;BME280;38294;42.966;1.608;2023-01-27T05:34:03;97285.75;;;5.21;54.83
52361;BME280;38294;42.966;1.608;2023-01-27T05:36:29;97271.56;;;5.15;55.10
52361;BME280;38294;42.966;1.608;2023-01-27T05:38:57;97286.50;;;5.47;54.79
52361;BME280;38294;42.966;1.608;2023-01-27T05:41:23;97294.44;;;5.06;55.84
52361;BME280;38294;42.966;1.608;2023-01-27T05:43:54;97284.63;;;5.30;55.20
52361;BME280;38294;42.966;1.608;2023-01-27T05:46:22;97295.25;;;4.72;56.12
52361;BME280;38294;42.966;1.608;2023-01-27T05:48:50;97302.41;;;4.85;56.46
52361;BME280;38294;42.966;1.608;2023-01-27T05:51:18;97302.44;;;4.76;57.36
52361;BME280;38294;42.966;1.608;2023-01-27T05:53:44;97308.03;;;4.54;59.04
52361;BME280;38294;42.966;1.608;2023-01-27T05:56:12;97304.34;;;4.76;57.95
52361;BME280;38294;42.966;1.608;2023-01-27T05:58:39;97298.75;;;4.72;57.58
52361;BME280;38294;42.966;1.608;2023-01-27T06:01:19;97295.75;;;5.46;56.30
52361;BME280;38294;42.966;1.608;2023-01-27T06:03:45;97309.63;;;4.81;57.53
52361;BME280;38294;42.966;1.608;2023-01-27T06:06:13;97311.34;;;4.26;59.68
52361;BME280;38294;42.966;1.608;2023-01-27T06:08:39;97313.69;;;4.18;59.63
52361;BME280;38294;42.966;1.608;2023-01-27T06:11:06;97313.47;;;4.71;58.21
52361;BME280;38294;42.966;1.608;2023-01-27T06:13:31;97315.25;;;4.02;59.28
52361;BME280;38294;42.966;1.608;2023-01-27T06:16:01;97318.31;;;4.27;59.14
52361;BME280;38294;42.966;1.608;2023-01-27T06:18:27;97319.00;;;4.49;58.58
52361;BME280;38294;42.966;1.608;2023-01-27T06:20:56;97322.53;;;4.58;58.77
52361;BME280;38294;42.966;1.608;2023-01-27T06:23:22;97328.56;;;4.30;59.09
52361;BME280;38294;42.966;1.608;2023-01-27T06:25:48;97322.53;;;4.67;58.44
52361;BME280;38294;42.966;1.608;2023-01-27T06:28:14;97328.50;;;4.04;59.29
52361;BME280;38294;42.966;1.608;2023-01-27T06:30:40;97317.38;;;4.22;59.62
52361;BME280;38294;42.966;1.608;2023-01-27T06:33:06;97325.25;;;4.93;58.82
52361;BME280;38294;42.966;1.608;2023-01-27T06:35:33;97326.03;;;5.02;57.14
52361;BME280;38294;42.966;1.608;2023-01-27T06:38:01;97326.78;;;5.37;56.71
52361;BME280;38294;42.966;1.608;2023-01-27T06:40:29;97342.16;;;5.15;56.12
52361;BME280;38294;42.966;1.608;2023-01-27T06:42:55;97343.25;;;4.37;57.19
52361;BME280;38294;42.966;1.608;2023-01-27T06:45:20;97347.13;;;4.88;54.91
52361;BME280;38294;42.966;1.608;2023-01-27T06:47:53;97349.53;;;4.89;54.42
52361;BME280;38294;42.966;1.608;2023-01-27T06:50:20;97343.63;;;3.96;57.33
52361;BME280;38294;42.966;1.608;2023-01-27T06:52:46;97344.88;;;4.72;58.69
52361;BME280;38294;42.966;1.608;2023-01-27T06:55:11;97344.28;;;4.10;61.09
52361;BME280;38294;42.966;1.608;2023-01-27T06:57:37;97346.78;;;3.98;62.15
52361;BME280;38294;42.966;1.608;2023-01-27T07:00:03;97349.38;;;4.03;62.54
52361;BME280;38294;42.966;1.608;2023-01-27T07:02:28;97341.53;;;3.93;63.20
52361;BME280;38294;42.966;1.608;2023-01-27T07:04:54;97348.22;;;3.87;63.52
52361;BME280;38294;42.966;1.608;2023-01-27T07:07:19;97347.56;;;4.30;62.26
52361;BME280;38294;42.966;1.608;2023-01-27T07:09:45;97348.88;;;4.01;62.71
52361;BME280;38294;42.966;1.608;2023-01-27T07:12:11;97347.47;;;3.64;64.78
52361;BME280;38294;42.966;1.608;2023-01-27T07:14:36;97353.19;;;3.32;65.70
52361;BME280;38294;42.966;1.608;2023-01-27T07:17:02;97346.72;;;3.42;64.50
52361;BME280;38294;42.966;1.608;2023-01-27T07:19:27;97355.34;;;3.83;63.95
52361;BME280;38294;42.966;1.608;2023-01-27T07:21:53;97352.84;;;3.95;63.44
52361;BME280;38294;42.966;1.608;2023-01-27T07:24:18;97358.16;;;4.09;64.15
52361;BME280;38294;42.966;1.608;2023-01-27T07:26:44;97351.69;;;3.48;64.95
52361;BME280;38294;42.966;1.608;2023-01-27T07:29:12;97356.00;;;4.28;63.71
52361;BME280;38294;42.966;1.608;2023-01-27T07:31:38;97347.34;;;3.78;64.63
52361;BME280;38294;42.966;1.608;2023-01-27T07:34:03;97356.47;;;3.82;65.38
52361;BME280;38294;42.966;1.608;2023-01-27T07:36:29;97355.72;;;3.90;65.18
52361;BME280;38294;42.966;1.608;2023-01-27T07:38:54;97357.09;;;3.79;64.85
52361;BME280;38294;42.966;1.608;2023-01-27T07:41:20;97361.97;;;3.99;64.87
52361;BME280;38294;42.966;1.608;2023-01-27T07:43:47;97376.28;;;3.60;66.19
52361;BME280;38294;42.966;1.608;2023-01-27T07:46:13;97358.97;;;4.09;64.42
52361;BME280;38294;42.966;1.608;2023-01-27T07:48:38;97367.34;;;3.60;66.55
52361;BME280;38294;42.966;1.608;2023-01-27T07:51:04;97360.25;;;3.72;65.74
52361;BME280;38294;42.966;1.608;2023-01-27T07:53:30;97362.19;;;4.20;64.13
52361;BME280;38294;42.966;1.608;2023-01-27T07:55:58;97364.66;;;3.99;65.05
52361;BME280;38294;42.966;1.608;2023-01-27T07:58:24;97377.13;;;3.16;67.29
52361;BME280;38294;42.966;1.608;2023-01-27T08:00:50;97361.94;;;3.60;67.12
52361;BME280;38294;42.966;1.608;2023-01-27T08:03:23;97371.59;;;4.22;66.04
52361;BME280;38294;42.966;1.608;2023-01-27T08:05:49;97370.78;;;4.13;65.54
52361;BME280;38294;42.966;1.608;2023-01-27T08:08:15;97371.16;;;3.59;66.12
52361;BME280;38294;42.966;1.608;2023-01-27T08:10:41;97369.81;;;3.79;66.50
52361;BME280;38294;42.966;1.608;2023-01-27T08:13:12;97380.16;;;4.07;66.20
52361;BME280;38294;42.966;1.608;2023-01-27T08:15:37;97406.47;;;3.76;65.42
52361;BME280;38294;42.966;1.608;2023-01-27T08:18:03;97399.09;;;3.99;65.61
52361;BME280;38294;42.966;1.608;2023-01-27T08:20:28;97384.97;;;3.27;69.07
52361;BME280;38294;42.966;1.608;2023-01-27T08:22:54;97389.03;;;3.60;68.71
52361;BME280;38294;42.966;1.608;2023-01-27T08:25:20;97396.25;;;4.04;68.08
52361;BME280;38294;42.966;1.608;2023-01-27T08:27:53;97388.97;;;4.13;68.33
52361;BME280;38294;42.966;1.608;2023-01-27T08:30:20;97403.31;;;3.52;69.90
52361;BME280;38294;42.966;1.608;2023-01-27T08:32:45;97399.81;;;3.82;68.82
52361;BME280;38294;42.966;1.608;2023-01-27T08:35:12;97395.59;;;3.98;67.95
52361;BME280;38294;42.966;1.608;2023-01-27T08:37:37;97377.88;;;4.01;66.90
52361;BME280;38294;42.966;1.608;2023-01-27T08:40:03;97392.00;;;3.81;68.16
52361;BME280;38294;42.966;1.608;2023-01-27T08:42:29;97385.09;;;4.05;66.58
52361;BME280;38294;42.966;1.608;2023-01-27T08:44:54;97387.16;;;3.69;67.63
52361;BME280;38294;42.966;1.608;2023-01-27T08:47:20;97385.34;;;4.26;66.78
52361;BME280;38294;42.966;1.608;2023-01-27T08:49:46;97384.66;;;4.20;65.54
52361;BME280;38294;42.966;1.608;2023-01-27T08:52:12;97396.09;;;4.48;64.69
52361;BME280;38294;42.966;1.608;2023-01-27T08:54:38;97378.22;;;3.99;66.25
52361;BME280;38294;42.966;1.608;2023-01-27T08:57:03;97385.53;;;4.47;65.05
52361;BME280;38294;42.966;1.608;2023-01-27T08:59:29;97386.94;;;3.88;65.66
52361;BME280;38294;42.966;1.608;2023-01-27T09:01:54;97393.34;;;3.61;66.53
52361;BME280;38294;42.966;1.608;2023-01-27T09:04:21;97392.66;;;4.26;64.99
52361;BME280;38294;42.966;1.608;2023-01-27T09:06:47;97394.66;;;4.51;63.64
52361;BME280;38294;42.966;1.608;2023-01-27T09:09:14;97390.06;;;4.86;62.19
52361;BME280;38294;42.966;1.608;2023-01-27T09:11:42;97385.34;;;5.98;59.60
52361;BME280;38294;42.966;1.608;2023-01-27T09:14:09;97387.72;;;5.99;58.90
52361;BME280;38294;42.966;1.608;2023-01-27T09:16:35;97398.38;;;5.32;60.98
52361;BME280;38294;42.966;1.608;2023-01-27T09:19:01;97397.59;;;5.32;60.78
52361;BME280;38294;42.966;1.608;2023-01-27T09:21:26;97395.91;;;6.28;59.08
52361;BME280;38294;42.966;1.608;2023-01-27T09:23:52;97390.38;;;6.16;58.61
52361;BME280;38294;42.966;1.608;2023-01-27T09:26:18;97393.91;;;6.17;57.53
52361;BME280;38294;42.966;1.608;2023-01-27T09:28:43;97380.38;;;5.82;58.59
52361;BME280;38294;42.966;1.608;2023-01-27T09:31:09;97390.22;;;5.23;61.15
52361;BME280;38294;42.966;1.608;2023-01-27T09:33:35;97401.41;;;5.30;60.48
52361;BME280;38294;42.966;1.608;2023-01-27T09:36:13;97399.81;;;4.78;62.61
52361;BME280;38294;42.966;1.608;2023-01-27T09:38:45;97415.94;;;4.74;63.65
52361;BME280;38294;42.966;1.608;2023-01-27T09:41:23;97409.19;;;4.63;63.27
52361;BME280;38294;42.966;1.608;2023-01-27T09:46:37;97414.03;;;5.18;62.84
52361;BME280;38294;42.966;1.608;2023-01-27T09:52:05;97407.81;;;5.35;62.26
52361;BME280;38294;42.966;1.608;2023-01-27T10:00:24;97416.53;;;4.63;63.16
52361;BME280;38294;42.966;1.608;2023-01-27T10:03:03;97411.78;;;5.11;62.37
52361;BME280;38294;42.966;1.608;2023-01-27T10:06:02;97414.66;;;4.89;63.77
52361;BME280;38294;42.966;1.608;2023-01-27T10:27:56;97403.50;;;4.91;63.63
52361;BME280;38294;42.966;1.608;2023-01-27T10:30:32;97416.56;;;4.71;64.74
52361;BME280;38294;42.966;1.608;2023-01-27T10:44:29;97401.44;;;5.13;63.34
52361;BME280;38294;42.966;1.608;2023-01-27T10:47:21;97401.09;;;4.89;64.62
52361;BME280;38294;42.966;1.608;2023-01-27T10:49:56;97401.09;;;4.81;65.15
52361;BME280;38294;42.966;1.608;2023-01-27T10:52:35;97404.28;;;4.91;64.65
52361;BME280;38294;42.966;1.608;2023-01-27T10:57:47;97389.91;;;5.25;64.12
52361;BME280;38294;42.966;1.608;2023-01-27T11:00:53;97397.53;;;5.57;62.51
52361;BME280;38294;42.966;1.608;2023-01-27T11:03:25;97385.13;;;5.22;63.78
52361;BME280;38294;42.966;1.608;2023-01-27T11:05:59;97394.72;;;5.19;63.59
52361;BME280;38294;42.966;1.608;2023-01-27T11:08:30;97391.03;;;5.33;62.78
52361;BME280;38294;42.966;1.608;2023-01-27T11:10:59;97408.25;;;4.85;64.05
52361;BME280;38294;42.966;1.608;2023-01-27T11:13:44;97378.75;;;5.01;62.62
52361;BME280;38294;42.966;1.608;2023-01-27T11:16:16;97379.97;;;5.46;62.37
52361;BME280;38294;42.966;1.608;2023-01-27T11:18:42;97380.00;;;5.29;62.04
52361;BME280;38294;42.966;1.608;2023-01-27T11:21:24;97377.91;;;4.66;64.42
52361;BME280;38294;42.966;1.608;2023-01-27T11:23:54;97368.34;;;5.11;63.89
52361;BME280;38294;42.966;1.608;2023-01-27T11:26:39;97374.13;;;5.82;60.16
52361;BME280;38294;42.966;1.608;2023-01-27T11:31:56;97356.59;;;6.17;60.59
52361;BME280;38294;42.966;1.608;2023-01-27T11:36:56;97354.09;;;5.49;61.19
52361;BME280;38294;42.966;1.608;2023-01-27T11:39:22;97354.88;;;6.04;60.26
52361;BME280;38294;42.966;1.608;2023-01-27T11:41:51;97359.66;;;6.16;60.24
52361;BME280;38294;42.966;1.608;2023-01-27T11:44:20;97348.91;;;6.19;60.24
52361;BME280;38294;42.966;1.608;2023-01-27T11:46:47;97333.97;;;5.41;61.58
52361;BME280;38294;42.966;1.608;2023-01-27T11:49:19;97351.16;;;5.62;62.57
52361;BME280;38294;42.966;1.608;2023-01-27T11:51:46;97358.78;;;4.97;62.55
52361;BME280;38294;42.966;1.608;2023-01-27T11:54:17;97337.69;;;5.02;63.75
52361;BME280;38294;42.966;1.608;2023-01-27T11:56:47;97336.16;;;5.65;62.16
52361;BME280;38294;42.966;1.608;2023-01-27T11:59:22;97327.78;;;5.78;61.79
52361;BME280;38294;42.966;1.608;2023-01-27T12:02:28;97320.53;;;6.29;60.64
52361;BME280;38294;42.966;1.608;2023-01-27T12:05:07;97322.69;;;6.15;60.35
52361;BME280;38294;42.966;1.608;2023-01-27T12:07:44;97311.00;;;6.44;59.61
52361;BME280;38294;42.966;1.608;2023-01-27T12:10:32;97319.22;;;6.35;59.46
52361;BME280;38294;42.966;1.608;2023-01-27T12:13:19;97306.97;;;6.20;59.02
52361;BME280;38294;42.966;1.608;2023-01-27T12:15:58;97308.06;;;6.28;58.85
52361;BME280;38294;42.966;1.608;2023-01-27T12:18:25;97309.09;;;5.77;59.17
52361;BME280;38294;42.966;1.608;2023-01-27T12:20:59;97302.53;;;5.87;59.55
52361;BME280;38294;42.966;1.608;2023-01-27T12:23:26;97295.63;;;5.89;59.27
52361;BME280;38294;42.966;1.608;2023-01-27T12:26:07;97285.88;;;6.17;58.86
52361;BME280;38294;42.966;1.608;2023-01-27T12:28:38;97278.34;;;6.44;57.97
52361;BME280;38294;42.966;1.608;2023-01-27T12:31:10;97283.97;;;5.89;58.56
52361;BME280;38294;42.966;1.608;2023-01-27T12:33:44;97280.69;;;6.04;59.15
52361;BME280;38294;42.966;1.608;2023-01-27T12:36:19;97285.13;;;6.38;59.35
52361;BME280;38294;42.966;1.608;2023-01-27T12:38:53;97288.41;;;6.52;58.39
52361;BME280;38294;42.966;1.608;2023-01-27T12:41:28;97279.22;;;6.56;57.96
52361;BME280;38294;42.966;1.608;2023-01-27T12:44:15;97278.53;;;7.01;56.98
52361;BME280;38294;42.966;1.608;2023-01-27T12:46:55;97284.63;;;5.86;59.87
52361;BME280;38294;42.966;1.608;2023-01-27T12:49:30;97278.13;;;6.07;58.88
52361;BME280;38294;42.966;1.608;2023-01-27T12:52:00;97272.56;;;6.24;58.77
52361;BME280;38294;42.966;1.608;2023-01-27T12:54:28;97266.66;;;6.43;59.13
52361;BME280;38294;42.966;1.608;2023-01-27T12:57:03;97282.94;;;6.02;59.22
52361;BME280;38294;42.966;1.608;2023-01-27T12:59:30;97266.22;;;6.41;57.63
52361;BME280;38294;42.966;1.608;2023-01-27T13:04:24;97259.84;;;6.37;57.47
52361;BME280;38294;42.966;1.608;2023-01-27T13:07:11;97253.66;;;6.28;59.31
52361;BME280;38294;42.966;1.608;2023-01-27T13:10:02;97270.00;;;6.69;57.76
52361;BME280;38294;42.966;1.608;2023-01-27T13:12:45;97264.69;;;6.73;56.90
52361;BME280;38294;42.966;1.608;2023-01-27T13:15:15;97265.66;;;6.89;55.68
52361;BME280;38294;42.966;1.608;2023-01-27T13:17:46;97259.06;;;6.57;57.08
52361;BME280;38294;42.966;1.608;2023-01-27T13:20:20;97250.22;;;6.60;57.19
52361;BME280;38294;42.966;1.608;2023-01-27T13:22:50;97256.13;;;5.54;60.29
52361;BME280;38294;42.966;1.608;2023-01-27T13:25:22;97261.03;;;6.69;57.18
52361;BME280;38294;42.966;1.608;2023-01-27T13:27:54;97247.16;;;6.41;58.39
52361;BME280;38294;42.966;1.608;2023-01-27T13:30:41;97245.72;;;6.44;57.73
52361;BME280;38294;42.966;1.608;2023-01-27T13:33:35;97245.78;;;5.76;60.60
52361;BME280;38294;42.966;1.608;2023-01-27T13:36:14;97246.03;;;5.92;60.18
52361;BME280;38294;42.966;1.608;2023-01-27T13:39:06;97246.84;;;5.93;59.11
52361;BME280;38294;42.966;1.608;2023-01-27T13:41:38;97236.13;;;5.96;60.82
52361;BME280;38294;42.966;1.608;2023-01-27T13:44:23;97241.31;;;6.10;59.73
52361;BME280;38294;42.966;1.608;2023-01-27T13:46:53;97242.00;;;5.98;60.50
52361;BME280;38294;42.966;1.608;2023-01-27T13:49:32;97222.84;;;5.95;59.10
52361;BME280;38294;42.966;1.608;2023-01-27T13:52:00;97244.03;;;5.72;60.42
52361;BME280;38294;42.966;1.608;2023-01-27T13:54:26;97236.28;;;6.41;58.57
52361;BME280;38294;42.966;1.608;2023-01-27T14:10:37;97243.84;;;5.86;61.82
52361;BME280;38294;42.966;1.608;2023-01-27T14:19:15;97250.72;;;6.12;59.90
52361;BME280;38294;42.966;1.608;2023-01-27T14:24:52;97265.94;;;6.13;60.65
52361;BME280;38294;42.966;1.608;2023-01-27T14:27:27;97262.03;;;6.23;61.44
52361;BME280;38294;42.966;1.608;2023-01-27T14:35:27;97272.13;;;5.93;62.32
52361;BME280;38294;42.966;1.608;2023-01-27T14:41:25;97284.22;;;6.54;60.90
52361;BME280;38294;42.966;1.608;2023-01-27T14:47:03;97281.53;;;6.66;61.78
52361;BME280;38294;42.966;1.608;2023-01-27T14:57:24;97307.13;;;5.95;64.15
52361;BME280;38294;42.966;1.608;2023-01-27T15:02:45;97318.19;;;6.48;62.70
52361;BME280;38294;42.966;1.608;2023-01-27T15:10:30;97313.88;;;6.18;63.54
52361;BME280;38294;42.966;1.608;2023-01-27T15:15:57;97312.56;;;6.74;62.43
52361;BME280;38294;42.966;1.608;2023-01-27T15:26:22;97329.81;;;5.99;64.48
52361;BME280;38294;42.966;1.608;2023-01-27T15:28:50;97331.38;;;5.62;65.49
52361;BME280;38294;42.966;1.608;2023-01-27T15:36:32;97342.41;;;5.65;66.25
52361;BME280;38294;42.966;1.608;2023-01-27T15:41:24;97342.22;;;5.70;65.28
52361;BME280;38294;42.966;1.608;2023-01-27T15:44:13;97343.16;;;5.74;65.26
52361;BME280;38294;42.966;1.608;2023-01-27T15:46:49;97350.41;;;5.62;65.78
52361;BME280;38294;42.966;1.608;2023-01-27T15:49:42;97356.88;;;6.24;64.61
52361;BME280;38294;42.966;1.608;2023-01-27T15:54:50;97361.41;;;5.65;65.75
52361;BME280;38294;42.966;1.608;2023-01-27T15:57:37;97358.63;;;5.82;65.08
52361;BME280;38294;42.966;1.608;2023-01-27T16:00:23;97371.63;;;6.23;64.24
52361;BME280;38294;42.966;1.608;2023-01-27T16:02:52;97370.53;;;6.16;64.24
52361;BME280;38294;42.966;1.608;2023-01-27T16:05:27;97360.09;;;6.56;63.04
52361;BME280;38294;42.966;1.608;2023-01-27T16:07:59;97360.47;;;6.08;65.20
52361;BME280;38294;42.966;1.608;2023-01-27T16:10:32;97361.63;;;6.65;62.78
52361;BME280;38294;42.966;1.608;2023-01-27T16:15:42;97367.38;;;6.05;63.90
52361;BME280;38294;42.966;1.608;2023-01-27T16:23:50;97352.84;;;7.22;60.79
52361;BME280;38294;42.966;1.608;2023-01-27T16:27:03;97349.06;;;6.52;61.98
52361;BME280;38294;42.966;1.608;2023-01-27T16:31:41;97355.91;;;7.00;60.92
52361;BME280;38294;42.966;1.608;2023-01-27T16:34:21;97357.38;;;6.97;60.96
52361;BME280;38294;42.966;1.608;2023-01-27T16:37:00;97351.88;;;7.38;60.41
52361;BME280;38294;42.966;1.608;2023-01-27T16:39:33;97343.09;;;6.79;61.98
52361;BME280;38294;42.966;1.608;2023-01-27T16:42:00;97346.75;;;7.37;59.15
52361;BME280;38294;42.966;1.608;2023-01-27T16:44:36;97345.75;;;7.86;58.21
52361;BME280;38294;42.966;1.608;2023-01-27T16:47:04;97348.59;;;7.78;58.37
52361;BME280;38294;42.966;1.608;2023-01-27T16:49:39;97349.72;;;7.65;59.03
52361;BME280;38294;42.966;1.608;2023-01-27T16:52:25;97352.94;;;8.15;57.41
52361;BME280;38294;42.966;1.608;2023-01-27T16:54:53;97359.44;;;7.66;58.33
52361;BME280;38294;42.966;1.608;2023-01-27T16:57:43;97358.13;;;7.72;58.63
52361;BME280;38294;42.966;1.608;2023-01-27T17:00:25;97368.94;;;7.48;58.70
52361;BME280;38294;42.966;1.608;2023-01-27T17:02:53;97361.50;;;7.03;60.25
52361;BME280;38294;42.966;1.608;2023-01-27T17:05:21;97374.94;;;7.41;59.20
52361;BME280;38294;42.966;1.608;2023-01-27T17:08:12;97363.88;;;8.03;58.43
52361;BME280;38294;42.966;1.608;2023-01-27T17:10:47;97365.16;;;7.73;59.11
52361;BME280;38294;42.966;1.608;2023-01-27T17:13:34;97374.81;;;7.37;59.62
52361;BME280;38294;42.966;1.608;2023-01-27T17:16:03;97378.25;;;7.14;60.01
52361;BME280;38294;42.966;1.608;2023-01-27T17:18:34;97388.25;;;7.22;60.21
52361;BME280;38294;42.966;1.608;2023-01-27T17:21:01;97384.44;;;6.73;61.71
52361;BME280;38294;42.966;1.608;2023-01-27T17:23:30;97383.16;;;7.20;60.45
52361;BME280;38294;42.966;1.608;2023-01-27T17:26:02;97391.25;;;7.08;61.06
52361;BME280;38294;42.966;1.608;2023-01-27T17:28:28;97396.97;;;7.15;60.11
52361;BME280;38294;42.966;1.608;2023-01-27T17:31:01;97398.13;;;6.85;61.60
52361;BME280;38294;42.966;1.608;2023-01-27T17:33:28;97399.00;;;6.77;61.64
52361;BME280;38294;42.966;1.608;2023-01-27T17:36:06;97407.50;;;6.08;64.58
52361;BME280;38294;42.966;1.608;2023-01-27T17:38:45;97403.66;;;6.47;64.17
52361;BME280;38294;42.966;1.608;2023-01-27T17:41:33;97400.72;;;6.61;64.08
52361;BME280;38294;42.966;1.608;2023-01-27T17:44:00;97409.59;;;6.41;64.47
52361;BME280;38294;42.966;1.608;2023-01-27T17:46:28;97412.94;;;6.17;65.94
52361;BME280;38294;42.966;1.608;2023-01-27T17:51:39;97428.84;;;5.89;67.21
52361;BME280;38294;42.966;1.608;2023-01-27T17:54:31;97418.78;;;6.36;66.97
52361;BME280;38294;42.966;1.608;2023-01-27T17:57:04;97420.72;;;5.46;67.71
52361;BME280;38294;42.966;1.608;2023-01-27T17:59:32;97429.16;;;5.70;68.77
52361;BME280;38294;42.966;1.608;2023-01-27T18:02:03;97421.75;;;6.14;67.13
52361;BME280;38294;42.966;1.608;2023-01-27T18:04:37;97420.34;;;5.82;68.38
52361;BME280;38294;42.966;1.608;2023-01-27T18:07:03;97427.84;;;6.49;66.21
52361;BME280;38294;42.966;1.608;2023-01-27T18:09:30;97425.47;;;5.92;67.62
52361;BME280;38294;42.966;1.608;2023-01-27T18:12:03;97431.06;;;6.33;67.22
52361;BME280;38294;42.966;1.608;2023-01-27T18:14:33;97433.69;;;6.59;66.27
52361;BME280;38294;42.966;1.608;2023-01-27T18:17:19;97432.09;;;6.20;68.06
52361;BME280;38294;42.966;1.608;2023-01-27T18:19:54;97444.63;;;6.13;68.10
52361;BME280;38294;42.966;1.608;2023-01-27T18:22:22;97444.63;;;6.04;67.77
52361;BME280;38294;42.966;1.608;2023-01-27T18:24:55;97456.28;;;6.05;69.30
52361;BME280;38294;42.966;1.608;2023-01-27T18:27:39;97454.22;;;6.10;68.38
52361;BME280;38294;42.966;1.608;2023-01-27T18:30:12;97446.59;;;6.71;66.85
52361;BME280;38294;42.966;1.608;2023-01-27T18:32:43;97457.63;;;5.90;69.86
52361;BME280;38294;42.966;1.608;2023-01-27T18:35:31;97457.63;;;6.45;68.67
52361;BME280;38294;42.966;1.608;2023-01-27T18:38:18;97457.09;;;6.52;68.83
52361;BME280;38294;42.966;1.608;2023-01-27T18:40:46;97475.06;;;5.89;71.99
52361;BME280;38294;42.966;1.608;2023-01-27T18:43:12;97478.41;;;5.60;72.34
52361;BME280;38294;42.966;1.608;2023-01-27T18:45:37;97478.91;;;5.54;72.93
52361;BME280;38294;42.966;1.608;2023-01-27T18:48:12;97492.88;;;6.24;73.19
52361;BME280;38294;42.966;1.608;2023-01-27T18:50:42;97487.28;;;6.29;72.48
52361;BME280;38294;42.966;1.608;2023-01-27T18:53:17;97504.41;;;6.30;72.96
52361;BME280;38294;42.966;1.608;2023-01-27T18:55:44;97511.34;;;5.42;75.24
52361;BME280;38294;42.966;1.608;2023-01-27T18:58:10;97496.44;;;5.82;75.54
52361;BME280;38294;42.966;1.608;2023-01-27T19:00:45;97493.91;;;5.34;77.84
52361;BME280;38294;42.966;1.608;2023-01-27T19:03:19;97489.72;;;6.05;75.16
52361;BME280;38294;42.966;1.608;2023-01-27T19:05:47;97479.69;;;6.44;73.45
52361;BME280;38294;42.966;1.608;2023-01-27T19:08:20;97472.88;;;7.46;70.44
52361;BME280;38294;42.966;1.608;2023-01-27T19:10:47;97467.00;;;6.56;70.80
52361;BME280;38294;42.966;1.608;2023-01-27T19:13:14;97466.19;;;7.14;68.95
52361;BME280;38294;42.966;1.608;2023-01-27T19:15:51;97465.34;;;7.22;69.32
52361;BME280;38294;42.966;1.608;2023-01-27T19:18:22;97465.72;;;7.12;68.74
52361;BME280;38294;42.966;1.608;2023-01-27T19:20:48;97468.41;;;6.33;70.63
52361;BME280;38294;42.966;1.608;2023-01-27T19:23:15;97465.75;;;6.83;69.41
52361;BME280;38294;42.966;1.608;2023-01-27T19:25:41;97467.06;;;7.06;69.50
52361;BME280;38294;42.966;1.608;2023-01-27T19:28:19;97467.22;;;7.84;66.67
52361;BME280;38294;42.966;1.608;2023-01-27T19:30:46;97461.78;;;7.01;67.83
52361;BME280;38294;42.966;1.608;2023-01-27T19:33:20;97472.16;;;7.08;68.55
52361;BME280;38294;42.966;1.608;2023-01-27T19:39:07;97471.00;;;7.38;66.74
52361;BME280;38294;42.966;1.608;2023-01-27T19:41:35;97469.97;;;6.43;68.84
52361;BME280;38294;42.966;1.608;2023-01-27T19:44:01;97481.41;;;6.10;69.54
52361;BME280;38294;42.966;1.608;2023-01-27T19:46:27;97478.69;;;6.57;69.19
52361;BME280;38294;42.966;1.608;2023-01-27T19:48:52;97481.75;;;6.00;69.93
52361;BME280;38294;42.966;1.608;2023-01-27T19:51:18;97476.41;;;6.29;69.61
52361;BME280;38294;42.966;1.608;2023-01-27T19:53:45;97482.41;;;6.52;69.55